createdAt,value
2023-02-26T00:01:20.112Z,12.26
2023-02-26T00:03:51.930Z,12.06
2023-02-26T00:06:19.694Z,11.96
2023-02-26T00:08:47.421Z,12.01
2023-02-26T00:11:15.413Z,12.12
2023-02-26T00:13:44.127Z,12.33
2023-02-26T00:16:27.049Z,12.38
2023-02-26T00:18:59.346Z,12.60
2023-02-26T00:21:27.606Z,12.04
2023-02-26T00:23:55.492Z,12.12
2023-02-26T00:26:23.783Z,12.26
2023-02-26T00:28:51.820Z,12.28
2023-02-26T00:31:26.145Z,12.24
2023-02-26T00:33:54.764Z,12.20
2023-02-26T00:36:25.078Z,12.21
2023-02-26T00:39:14.221Z,12.17
2023-02-26T00:41:42.333Z,12.14
2023-02-26T00:44:10.300Z,12.23
2023-02-26T00:46:54.645Z,12.18
2023-02-26T00:49:43.769Z,12.29
2023-02-26T00:52:15.043Z,12.25
2023-02-26T00:54:42.876Z,12.23
2023-02-26T00:57:10.561Z,12.16
2023-02-26T00:59:38.295Z,12.18
2023-02-26T01:02:06.017Z,12.25
2023-02-26T01:04:33.925Z,12.18
2023-02-26T01:07:01.936Z,12.34
2023-02-26T01:09:33.966Z,12.13
2023-02-26T01:12:07.321Z,12.31
2023-02-26T01:14:35.362Z,12.48
2023-02-26T01:17:08.915Z,12.31
2023-02-26T01:19:48.684Z,12.40
2023-02-26T01:22:20.235Z,12.34
2023-02-26T01:24:49.676Z,12.44
2023-02-26T01:27:17.565Z,12.20
2023-02-26T01:29:45.448Z,12.29
2023-02-26T01:32:18.713Z,12.32
2023-02-26T01:34:58.283Z,12.35
2023-02-26T01:37:49.093Z,12.37
2023-02-26T01:40:28.855Z,12.21
2023-02-26T01:42:58.762Z,12.33
2023-02-26T01:45:34.676Z,12.43
2023-02-26T01:48:08.144Z,12.48
2023-02-26T01:50:36.384Z,12.45
2023-02-26T01:53:24.008Z,12.45
2023-02-26T01:55:57.139Z,12.74
2023-02-26T01:58:25.302Z,12.73
2023-02-26T02:00:53.060Z,12.69
2023-02-26T02:03:21.064Z,12.57
2023-02-26T02:05:51.894Z,12.40
2023-02-26T02:08:20.276Z,12.64
2023-02-26T02:10:48.619Z,12.37
2023-02-26T02:13:35.859Z,12.63
2023-02-26T02:16:12.436Z,12.75
2023-02-26T02:18:54.650Z,12.75
2023-02-26T02:21:41.250Z,12.71
2023-02-26T02:24:18.174Z,12.76
2023-02-26T02:26:45.821Z,12.53
2023-02-26T02:29:34.734Z,12.61
2023-02-26T02:32:27.460Z,12.43
2023-02-26T02:35:00.908Z,12.44
2023-02-26T02:37:48.519Z,12.33
2023-02-26T02:40:20.130Z,12.56
2023-02-26T02:43:07.441Z,12.47
2023-02-26T02:45:38.430Z,12.37
2023-02-26T02:48:10.833Z,12.39
2023-02-26T02:50:49.720Z,12.37
2023-02-26T02:53:21.382Z,12.40
2023-02-26T02:56:07.284Z,12.50
2023-02-26T02:58:39.202Z,12.61
2023-02-26T03:01:11.548Z,12.43
2023-02-26T03:04:01.223Z,12.47
2023-02-26T03:06:32.486Z,12.48
2023-02-26T03:09:01.213Z,12.55
2023-02-26T03:11:28.897Z,13.16
2023-02-26T03:13:56.710Z,12.77
2023-02-26T03:16:37.877Z,12.81
2023-02-26T03:19:29.948Z,12.82
2023-02-26T03:22:18.287Z,12.76
2023-02-26T03:25:09.349Z,12.65
2023-02-26T03:27:52.511Z,12.79
2023-02-26T03:30:30.520Z,12.65
2023-02-26T03:33:18.639Z,13.00
2023-02-26T03:35:51.046Z,12.70
2023-02-26T03:38:45.224Z,12.52
2023-02-26T03:41:48.292Z,12.75
2023-02-26T03:44:25.876Z,12.75
2023-02-26T03:46:56.755Z,12.88
2023-02-26T03:49:49.321Z,13.06
2023-02-26T03:52:17.496Z,13.14
2023-02-26T03:55:25.847Z,13.16
2023-02-26T03:57:59.728Z,12.91
2023-02-26T04:01:07.895Z,13.02
2023-02-26T04:03:49.210Z,13.02
2023-02-26T04:06:17.174Z,12.70
2023-02-26T04:08:44.883Z,13.10
2023-02-26T04:11:17.277Z,13.38
2023-02-26T04:13:45.478Z,12.94
2023-02-26T04:16:14.997Z,12.83
2023-02-26T04:18:43.165Z,13.23
2023-02-26T04:21:15.949Z,13.46
2023-02-26T04:23:44.225Z,12.71
2023-02-26T04:26:13.339Z,12.43
2023-02-26T04:28:42.202Z,12.95
2023-02-26T04:31:10.656Z,12.63
2023-02-26T04:33:39.636Z,13.08
2023-02-26T04:36:07.757Z,12.79
2023-02-26T04:38:35.609Z,12.86
2023-02-26T04:41:03.627Z,13.07
2023-02-26T04:43:31.316Z,12.93
2023-02-26T04:46:18.440Z,12.60
2023-02-26T04:48:46.401Z,11.81
2023-02-26T04:51:14.240Z,12.29
2023-02-26T04:53:42.257Z,12.79
2023-02-26T04:56:10.613Z,12.14
2023-02-26T04:58:38.306Z,12.51
2023-02-26T05:01:10.610Z,13.07
2023-02-26T05:03:38.335Z,12.99
2023-02-26T05:06:06.493Z,12.26
2023-02-26T05:08:34.298Z,12.34
2023-02-26T05:11:02.063Z,12.18
2023-02-26T05:13:29.775Z,12.69
2023-02-26T05:15:57.611Z,12.55
2023-02-26T05:18:25.372Z,12.83
2023-02-26T05:20:56.405Z,13.00
2023-02-26T05:23:24.232Z,12.18
2023-02-26T05:25:51.974Z,12.36
2023-02-26T05:28:19.698Z,12.53
2023-02-26T05:30:47.495Z,12.59
2023-02-26T05:33:15.234Z,13.21
2023-02-26T05:35:43.033Z,12.97
2023-02-26T05:38:10.744Z,12.62
2023-02-26T05:40:38.531Z,12.65
2023-02-26T05:43:06.203Z,12.16
2023-02-26T05:45:33.920Z,12.43
2023-02-26T05:48:01.859Z,12.39
2023-02-26T05:50:30.602Z,11.88
2023-02-26T05:52:58.317Z,12.19
2023-02-26T05:55:26.053Z,11.90
2023-02-26T05:57:53.952Z,12.47
2023-02-26T06:00:21.843Z,12.33
2023-02-26T06:02:49.601Z,12.23
2023-02-26T06:05:17.410Z,12.91
2023-02-26T06:07:45.959Z,12.61
2023-02-26T06:10:14.392Z,12.80
2023-02-26T06:12:42.158Z,12.88
2023-02-26T06:15:10.439Z,12.25
2023-02-26T06:17:40.605Z,12.04
2023-02-26T06:20:09.534Z,12.04
2023-02-26T06:22:37.270Z,11.68
2023-02-26T06:25:05.542Z,12.07
2023-02-26T06:27:33.298Z,12.29
2023-02-26T06:30:01.177Z,12.63
2023-02-26T06:32:30.666Z,12.31
2023-02-26T06:34:58.607Z,12.68
2023-02-26T06:37:26.332Z,12.50
2023-02-26T06:39:54.081Z,12.48
2023-02-26T06:42:22.989Z,12.83
2023-02-26T06:44:50.728Z,13.01
2023-02-26T06:47:18.429Z,13.67
2023-02-26T06:49:46.243Z,14.28
2023-02-26T06:52:14.003Z,14.17
2023-02-26T06:54:41.688Z,14.96
2023-02-26T06:57:09.373Z,15.44
2023-02-26T06:59:37.182Z,15.45
2023-02-26T07:02:04.917Z,15.45
2023-02-26T07:04:32.617Z,14.73
2023-02-26T07:07:00.434Z,14.69
2023-02-26T07:09:28.232Z,14.85
2023-02-26T07:11:55.972Z,14.83
2023-02-26T07:14:23.644Z,15.02
2023-02-26T07:16:51.419Z,16.07
2023-02-26T07:19:19.172Z,16.10
2023-02-26T07:21:47.327Z,15.64
2023-02-26T07:24:15.018Z,15.40
2023-02-26T07:26:42.761Z,15.66
2023-02-26T07:29:10.462Z,16.51
2023-02-26T07:31:38.368Z,15.29
2023-02-26T07:34:06.145Z,16.24
2023-02-26T07:36:33.989Z,15.70
2023-02-26T07:39:01.669Z,15.57
2023-02-26T07:41:29.466Z,15.80
2023-02-26T07:43:57.156Z,16.78
2023-02-26T07:46:25.356Z,16.80
2023-02-26T07:48:53.303Z,17.90
2023-02-26T07:51:21.088Z,18.02
2023-02-26T07:53:48.774Z,19.23
2023-02-26T07:56:16.549Z,20.03
2023-02-26T07:58:44.253Z,19.10
2023-02-26T08:01:12.087Z,18.29
2023-02-26T08:03:39.863Z,16.96
2023-02-26T08:06:08.509Z,17.85
2023-02-26T08:08:36.218Z,18.90
2023-02-26T08:11:04.174Z,17.98
2023-02-26T08:13:31.885Z,18.76
2023-02-26T08:15:59.678Z,19.18
2023-02-26T08:18:27.423Z,19.18
2023-02-26T08:20:55.168Z,19.27
2023-02-26T08:23:22.888Z,19.52
2023-02-26T08:25:51.139Z,19.23
2023-02-26T08:28:18.838Z,18.43
2023-02-26T08:30:46.575Z,18.22
2023-02-26T08:33:14.262Z,19.58
2023-02-26T08:35:42.163Z,19.66
2023-02-26T08:38:09.946Z,19.79
2023-02-26T08:40:37.708Z,18.66
2023-02-26T08:43:05.456Z,18.25
2023-02-26T08:45:33.227Z,16.84
2023-02-26T08:48:00.994Z,16.72
2023-02-26T08:50:28.994Z,16.36
2023-02-26T08:52:56.689Z,16.59
2023-02-26T08:55:24.557Z,16.51
2023-02-26T08:57:52.258Z,16.45
2023-02-26T09:00:20.596Z,16.59
2023-02-26T09:02:48.470Z,16.84
2023-02-26T09:05:16.620Z,16.30
2023-02-26T09:07:44.355Z,16.97
2023-02-26T09:10:12.344Z,16.73
2023-02-26T09:12:40.049Z,16.47
2023-02-26T09:15:08.506Z,16.47
2023-02-26T09:17:36.448Z,17.27
2023-02-26T09:20:04.493Z,16.67
2023-02-26T09:22:32.315Z,16.12
2023-02-26T09:25:00.173Z,16.66
2023-02-26T09:27:27.970Z,16.79
2023-02-26T09:29:55.727Z,16.74
2023-02-26T09:32:23.707Z,16.59
2023-02-26T09:34:51.542Z,17.65
2023-02-26T09:37:19.265Z,17.09
2023-02-26T09:39:47.175Z,17.46
2023-02-26T09:42:27.639Z,18.30
2023-02-26T09:45:00.433Z,18.43
2023-02-26T09:47:41.166Z,18.43
2023-02-26T09:50:25.533Z,18.30
2023-02-26T09:53:13.475Z,18.30
2023-02-26T09:55:46.967Z,18.36
2023-02-26T09:58:39.498Z,18.81
2023-02-26T10:01:43.965Z,18.52
2023-02-26T10:04:23.779Z,18.25
2023-02-26T10:06:51.980Z,18.32
2023-02-26T10:09:23.392Z,18.59
2023-02-26T10:11:57.330Z,18.83
2023-02-26T10:14:32.545Z,18.64
2023-02-26T10:17:04.119Z,18.49
2023-02-26T10:19:36.401Z,18.71
2023-02-26T10:22:31.347Z,18.47
2023-02-26T10:25:03.418Z,18.78
2023-02-26T10:27:38.465Z,18.55
2023-02-26T10:30:09.211Z,18.18
2023-02-26T10:32:39.530Z,18.29
2023-02-26T10:35:15.057Z,18.22
2023-02-26T10:38:03.004Z,18.10
2023-02-26T10:40:43.331Z,18.21
2023-02-26T10:43:16.996Z,18.34
2023-02-26T10:46:04.617Z,18.15
2023-02-26T10:49:14.544Z,18.65
2023-02-26T10:51:42.254Z,18.37
2023-02-26T10:54:31.336Z,18.37
2023-02-26T10:56:59.095Z,18.11
2023-02-26T10:59:27.049Z,18.22
2023-02-26T11:01:54.791Z,17.98
2023-02-26T11:04:23.870Z,17.71
2023-02-26T11:06:54.994Z,18.22
2023-02-26T11:09:28.136Z,18.17
2023-02-26T11:12:17.008Z,18.70
2023-02-26T11:14:47.148Z,18.56
2023-02-26T11:17:18.014Z,18.98
2023-02-26T11:20:15.117Z,19.09
2023-02-26T11:22:47.550Z,18.68
2023-02-26T11:25:18.282Z,18.34
2023-02-26T11:27:47.933Z,18.30
2023-02-26T11:30:22.364Z,18.16
2023-02-26T11:32:51.840Z,18.33
2023-02-26T11:35:20.689Z,18.11
2023-02-26T11:37:49.950Z,17.80
2023-02-26T11:40:38.373Z,17.49
2023-02-26T11:43:08.820Z,18.19
2023-02-26T11:45:38.940Z,18.92
2023-02-26T11:48:08.071Z,18.67
2023-02-26T11:50:43.394Z,18.95
2023-02-26T11:53:32.869Z,18.26
2023-02-26T11:56:12.521Z,18.30
2023-02-26T11:58:41.666Z,18.91
2023-02-26T12:01:10.707Z,18.62
2023-02-26T12:03:42.560Z,18.65
2023-02-26T12:06:17.315Z,18.48
2023-02-26T12:08:45.364Z,18.28
2023-02-26T12:11:31.365Z,18.62
2023-02-26T12:14:21.999Z,18.64
2023-02-26T12:17:17.397Z,19.05
2023-02-26T12:20:00.554Z,19.23
2023-02-26T12:22:42.957Z,19.81
2023-02-26T12:25:13.544Z,19.42
2023-02-26T12:28:02.971Z,19.97
2023-02-26T12:31:29.930Z,19.92
2023-02-26T12:34:02.564Z,18.95
2023-02-26T12:36:55.376Z,18.99
2023-02-26T12:39:44.233Z,18.76
2023-02-26T12:42:27.362Z,19.45
2023-02-26T12:45:12.590Z,19.58
2023-02-26T12:48:06.433Z,18.80
2023-02-26T12:50:52.959Z,19.03
2023-02-26T12:53:39.276Z,18.40
2023-02-26T12:56:39.598Z,18.89
2023-02-26T12:59:16.612Z,19.11
2023-02-26T13:02:01.785Z,19.49
2023-02-26T13:05:03.210Z,19.54
2023-02-26T13:07:49.394Z,18.70
2023-02-26T13:10:25.949Z,18.30
2023-02-26T13:13:17.663Z,19.59
2023-02-26T13:15:57.426Z,20.23
2023-02-26T13:18:31.949Z,19.06
2023-02-26T13:21:11.964Z,18.04
2023-02-26T13:24:08.023Z,18.80
2023-02-26T13:26:35.911Z,18.64
2023-02-26T13:29:40.209Z,18.40
2023-02-26T13:32:13.861Z,18.74
2023-02-26T13:34:44.270Z,17.85
2023-02-26T13:37:30.026Z,17.33
2023-02-26T13:40:32.150Z,17.33
2023-02-26T13:43:27.894Z,17.48
2023-02-26T13:46:25.837Z,18.02
2023-02-26T13:49:08.577Z,17.88
2023-02-26T13:51:44.798Z,17.79
2023-02-26T13:54:14.241Z,17.31
2023-02-26T13:57:06.229Z,17.55
2023-02-26T13:59:44.006Z,17.49
2023-02-26T14:02:20.772Z,17.60
2023-02-26T14:04:53.440Z,17.61
2023-02-26T14:07:59.412Z,18.30
2023-02-26T14:10:29.935Z,17.63
2023-02-26T14:13:12.407Z,17.49
2023-02-26T14:15:52.786Z,17.48
2023-02-26T14:18:40.704Z,17.35
2023-02-26T14:21:27.922Z,17.48
2023-02-26T14:24:01.017Z,17.57
2023-02-26T14:26:31.846Z,17.77
2023-02-26T14:29:05.661Z,17.84
2023-02-26T14:31:55.557Z,18.19
2023-02-26T14:34:25.027Z,17.43
2023-02-26T14:36:59.895Z,17.36
2023-02-26T14:39:38.964Z,17.29
2023-02-26T14:42:11.803Z,17.37
2023-02-26T14:44:43.174Z,16.89
2023-02-26T14:47:11.187Z,16.93
2023-02-26T14:49:41.529Z,16.79
2023-02-26T14:52:12.225Z,16.59
2023-02-26T14:54:58.708Z,16.79
2023-02-26T14:57:32.349Z,17.41
2023-02-26T15:00:03.446Z,17.26
2023-02-26T15:03:19.486Z,17.36
2023-02-26T15:05:56.686Z,17.47
2023-02-26T15:08:44.357Z,17.55
2023-02-26T15:11:32.911Z,17.05
2023-02-26T15:14:15.005Z,16.58
2023-02-26T15:17:10.518Z,16.84
2023-02-26T15:20:01.166Z,16.80
2023-02-26T15:22:32.402Z,16.95
2023-02-26T15:25:01.275Z,16.53
2023-02-26T15:27:30.372Z,17.15
2023-02-26T15:29:58.142Z,17.60
2023-02-26T15:32:30.270Z,17.69
2023-02-26T15:35:18.266Z,16.71
2023-02-26T15:37:50.290Z,16.98
2023-02-26T15:40:19.090Z,16.91
2023-02-26T15:42:56.432Z,16.56
2023-02-26T15:45:28.323Z,16.96
2023-02-26T15:47:58.986Z,16.57
2023-02-26T15:50:29.271Z,16.13
2023-02-26T15:53:00.470Z,17.03
2023-02-26T15:55:31.488Z,17.12
2023-02-26T15:57:59.261Z,16.52
2023-02-26T16:00:27.049Z,16.18
2023-02-26T16:02:57.330Z,15.89
2023-02-26T16:05:26.381Z,16.31
2023-02-26T16:07:54.523Z,16.90
2023-02-26T16:10:41.581Z,16.96
2023-02-26T16:13:19.435Z,16.55
2023-02-26T16:15:47.328Z,15.44
2023-02-26T16:18:17.397Z,15.55
2023-02-26T16:20:46.641Z,15.83
2023-02-26T16:23:16.436Z,15.83
2023-02-26T16:25:53.745Z,15.73
2023-02-26T16:28:28.670Z,16.54
2023-02-26T16:30:58.103Z,16.79
2023-02-26T16:33:26.144Z,16.83
2023-02-26T16:36:05.623Z,16.64
2023-02-26T16:38:44.141Z,16.77
2023-02-26T16:41:12.107Z,16.24
2023-02-26T16:43:47.690Z,15.01
2023-02-26T16:46:45.096Z,15.12
2023-02-26T16:49:23.599Z,14.90
2023-02-26T16:51:51.764Z,14.84
2023-02-26T16:54:27.566Z,14.69
2023-02-26T16:57:12.194Z,14.72
2023-02-26T16:59:40.060Z,13.96
2023-02-26T17:02:18.523Z,14.33
2023-02-26T17:04:47.330Z,14.00
2023-02-26T17:07:16.754Z,14.25
2023-02-26T17:09:49.735Z,14.19
2023-02-26T17:12:21.021Z,14.24
2023-02-26T17:14:58.932Z,13.90
2023-02-26T17:17:27.021Z,14.17
2023-02-26T17:19:54.704Z,13.70
2023-02-26T17:22:27.287Z,13.87
2023-02-26T17:24:55.112Z,14.55
2023-02-26T17:27:31.290Z,14.55
2023-02-26T17:29:59.427Z,14.53
2023-02-26T17:32:27.449Z,14.74
2023-02-26T17:34:55.219Z,14.87
2023-02-26T17:37:22.974Z,15.53
2023-02-26T17:39:51.305Z,15.95
2023-02-26T17:42:21.462Z,15.94
2023-02-26T17:44:50.260Z,15.96
2023-02-26T17:47:20.057Z,15.01
2023-02-26T17:49:48.060Z,15.79
2023-02-26T17:52:15.899Z,14.97
2023-02-26T17:54:43.650Z,15.28
2023-02-26T17:57:21.293Z,15.58
2023-02-26T17:59:49.450Z,15.06
2023-02-26T18:02:22.157Z,15.10
2023-02-26T18:04:50.045Z,14.73
2023-02-26T18:07:17.959Z,14.34
2023-02-26T18:09:46.826Z,14.76
2023-02-26T18:12:17.892Z,14.32
2023-02-26T18:14:46.206Z,14.25
2023-02-26T18:17:16.401Z,13.49
2023-02-26T18:19:46.225Z,13.43
2023-02-26T18:22:14.342Z,13.40
2023-02-26T18:24:42.361Z,13.02
2023-02-26T18:27:17.857Z,13.29
2023-02-26T18:29:45.803Z,13.64
2023-02-26T18:32:14.932Z,13.52
2023-02-26T18:34:42.962Z,14.15
2023-02-26T18:37:14.643Z,13.48
2023-02-26T18:39:42.484Z,12.82
2023-02-26T18:42:23.942Z,13.34
2023-02-26T18:44:51.941Z,12.21
2023-02-26T18:47:20.642Z,12.49
2023-02-26T18:49:49.213Z,12.78
2023-02-26T18:52:16.906Z,13.34
2023-02-26T18:54:45.259Z,13.21
2023-02-26T18:57:12.994Z,12.44
2023-02-26T18:59:40.837Z,12.92
2023-02-26T19:02:11.900Z,12.78
2023-02-26T19:04:40.496Z,12.70
2023-02-26T19:07:08.216Z,12.75
2023-02-26T19:09:35.998Z,12.51
2023-02-26T19:12:04.162Z,13.06
2023-02-26T19:14:32.242Z,12.66
2023-02-26T19:17:00.102Z,12.63
2023-02-26T19:19:27.883Z,12.78
2023-02-26T19:21:55.808Z,12.61
2023-02-26T19:24:23.587Z,12.66
2023-02-26T19:26:51.380Z,12.59
2023-02-26T19:29:19.840Z,13.19
2023-02-26T19:31:47.815Z,12.85
2023-02-26T19:34:15.858Z,12.85
2023-02-26T19:36:48.137Z,12.96
2023-02-26T19:39:16.739Z,13.27
2023-02-26T19:41:45.909Z,13.61
2023-02-26T19:44:13.733Z,13.69
2023-02-26T19:46:44.546Z,13.90
2023-02-26T19:49:14.242Z,13.85
2023-02-26T19:51:42.257Z,13.71
2023-02-26T19:54:10.195Z,13.90
2023-02-26T19:56:37.924Z,13.46
2023-02-26T19:59:06.050Z,12.48
2023-02-26T20:01:33.788Z,12.81
2023-02-26T20:04:01.592Z,12.69
2023-02-26T20:06:29.549Z,13.02
2023-02-26T20:08:57.296Z,13.71
2023-02-26T20:11:25.339Z,13.35
2023-02-26T20:13:53.285Z,12.14
2023-02-26T20:16:21.115Z,12.99
2023-02-26T20:18:49.199Z,12.54
2023-02-26T20:21:16.952Z,12.87
2023-02-26T20:23:44.652Z,13.52
2023-02-26T20:26:14.945Z,12.93
2023-02-26T20:28:42.817Z,13.11
2023-02-26T20:31:10.874Z,13.39
2023-02-26T20:33:39.501Z,13.07
2023-02-26T20:36:08.464Z,13.31
2023-02-26T20:38:36.519Z,13.00
2023-02-26T20:41:04.493Z,13.66
2023-02-26T20:43:32.677Z,13.16
2023-02-26T20:46:00.650Z,13.08
2023-02-26T20:48:28.466Z,12.45
2023-02-26T20:51:00.285Z,12.46
2023-02-26T20:53:28.113Z,12.69
2023-02-26T20:55:56.233Z,12.14
2023-02-26T20:58:24.785Z,11.92
2023-02-26T21:00:55.542Z,11.86
2023-02-26T21:03:23.668Z,12.10
2023-02-26T21:05:51.405Z,12.05
2023-02-26T21:08:19.142Z,11.84
2023-02-26T21:10:46.884Z,12.05
2023-02-26T21:13:14.577Z,12.27
2023-02-26T21:15:42.300Z,12.53
2023-02-26T21:18:09.997Z,12.29
2023-02-26T21:20:37.709Z,12.29
2023-02-26T21:23:05.419Z,12.67
2023-02-26T21:25:33.162Z,12.98
2023-02-26T21:28:01.073Z,12.95
2023-02-26T21:30:28.982Z,13.01
2023-02-26T21:32:56.683Z,13.05
2023-02-26T21:35:24.665Z,13.02
2023-02-26T21:37:52.370Z,12.73
2023-02-26T21:40:20.251Z,12.56
2023-02-26T21:42:47.946Z,13.02
2023-02-26T21:45:15.838Z,12.50
2023-02-26T21:47:43.669Z,13.01
2023-02-26T21:50:11.634Z,12.94
2023-02-26T21:52:39.388Z,12.99
2023-02-26T21:55:07.460Z,13.20
2023-02-26T21:57:35.169Z,12.70
2023-02-26T22:00:05.839Z,12.34
2023-02-26T22:02:39.796Z,12.43
2023-02-26T22:05:07.820Z,12.01
2023-02-26T22:07:35.817Z,12.24
2023-02-26T22:10:04.430Z,12.99
2023-02-26T22:12:32.794Z,13.00
2023-02-26T22:15:00.500Z,13.45
2023-02-26T22:17:28.266Z,13.24
2023-02-26T22:19:56.001Z,13.08
2023-02-26T22:22:24.070Z,13.13
2023-02-26T22:24:51.781Z,13.18
2023-02-26T22:27:19.547Z,13.24
2023-02-26T22:29:47.309Z,12.95
2023-02-26T22:32:15.040Z,13.34
2023-02-26T22:34:44.715Z,13.08
2023-02-26T22:37:12.927Z,13.31
2023-02-26T22:39:41.210Z,12.30
2023-02-26T22:42:09.003Z,12.65
2023-02-26T22:44:36.793Z,12.47
2023-02-26T22:47:04.724Z,12.23
2023-02-26T22:49:32.641Z,12.36
2023-02-26T22:52:00.344Z,12.55
2023-02-26T22:54:28.146Z,12.37
2023-02-26T22:56:55.884Z,12.79
2023-02-26T22:59:23.748Z,12.72
2023-02-26T23:01:51.471Z,12.29
2023-02-26T23:04:19.293Z,12.61
2023-02-26T23:06:47.089Z,13.30
2023-02-26T23:09:14.789Z,12.64
2023-02-26T23:11:42.518Z,12.83
2023-02-26T23:14:10.201Z,13.15
2023-02-26T23:16:38.081Z,13.19
2023-02-26T23:19:05.810Z,12.82
2023-02-26T23:21:33.567Z,12.83
2023-02-26T23:24:01.326Z,13.05
2023-02-26T23:26:29.076Z,12.69
2023-02-26T23:28:56.807Z,11.74
2023-02-26T23:31:25.022Z,12.12
2023-02-26T23:33:52.963Z,12.65
2023-02-26T23:36:20.779Z,11.93
2023-02-26T23:38:48.451Z,12.17
2023-02-26T23:41:16.218Z,12.76
2023-02-26T23:43:43.968Z,12.84
2023-02-26T23:46:12.021Z,12.92
2023-02-26T23:48:40.074Z,12.57
2023-02-26T23:51:07.801Z,12.53
2023-02-26T23:53:36.711Z,12.35
2023-02-26T23:56:04.794Z,12.74
2023-02-26T23:58:32.476Z,12.82
